Time;durP1;ratioP1;P1;durP2;ratioP2;P2;SDS_P1;SDS_P2;PMS_P1;PMS_P2;Temp;Humidity;BMP_temperature;BMP_pressure;BME280_temperature;BME280_humidity;BME280_pressure;Samples;Min_cycle;Max_cycle;Signal;HPM_P1;HPM_P2
2022/09/07 00:01:40;;;;;;;5.10;4.77;;;;;;;19.94;66.88;100211.06;5053547;28;20291;-76
2022/09/07 00:04:06;;;;;;;5.50;5.03;;;;;;;19.98;66.95;100209.06;5045586;28;20274;-76
2022/09/07 00:06:33;;;;;;;5.23;4.83;;;;;;;19.95;67.07;100209.25;5053798;28;20232;-76
2022/09/07 00:09:00;;;;;;;4.50;4.20;;;;;;;19.91;66.70;100218.34;5053863;28;20205;-76
2022/09/07 00:11:27;;;;;;;5.00;4.50;;;;;;;19.85;66.98;100227.50;5053909;28;20262;-76
2022/09/07 00:13:55;;;;;;;5.13;4.73;;;;;;;19.80;67.72;100214.56;5053534;28;20667;-76
2022/09/07 00:16:25;;;;;;;4.50;4.20;;;;;;;19.81;67.62;100196.88;5053588;28;20217;-76
2022/09/07 00:18:53;;;;;;;4.53;4.27;;;;;;;19.75;68.04;100195.44;5053753;28;20555;-76
2022/09/07 00:21:20;;;;;;;5.13;4.83;;;;;;;19.78;67.94;100191.75;5053632;28;20240;-76
2022/09/07 00:23:48;;;;;;;4.37;3.97;;;;;;;19.82;67.91;100198.56;5053245;28;20229;-76
2022/09/07 00:26:17;;;;;;;4.17;3.87;;;;;;;19.82;67.75;100204.72;5053187;28;20222;-76
2022/09/07 00:28:44;;;;;;;4.23;3.50;;;;;;;19.81;67.80;100213.59;5053595;28;20210;-75
2022/09/07 00:31:14;;;;;;;4.17;3.87;;;;;;;19.84;67.07;100236.38;5053620;28;20215;-76
2022/09/07 00:33:41;;;;;;;4.63;4.23;;;;;;;19.83;67.33;100242.66;5044619;28;20222;-76
2022/09/07 00:36:07;;;;;;;4.23;3.93;;;;;;;19.80;67.47;100232.22;5052926;28;20205;-76
2022/09/07 00:38:34;;;;;;;4.27;4.00;;;;;;;19.77;67.46;100235.91;5053392;28;20259;-76
2022/09/07 00:41:01;;;;;;;4.20;3.90;;;;;;;19.65;68.08;100211.00;5053201;28;20205;-76
2022/09/07 00:43:33;;;;;;;4.27;3.87;;;;;;;19.65;68.13;100202.22;5052984;28;20777;-76
2022/09/07 00:46:00;;;;;;;5.47;3.97;;;;;;;19.64;67.91;100201.38;5052774;28;20288;-76
2022/09/07 00:48:33;;;;;;;3.93;3.57;;;;;;;19.65;67.83;100207.50;5052770;28;20574;-76
2022/09/07 00:51:06;;;;;;;3.87;3.53;;;;;;;19.60;68.06;100201.63;5053178;28;20185;-75
2022/09/07 00:53:36;;;;;;;3.87;3.57;;;;;;;19.62;67.96;100205.03;5052660;28;20263;-76
2022/09/07 00:56:04;;;;;;;3.63;3.33;;;;;;;19.59;67.97;100207.88;5052506;28;20213;-75
2022/09/07 00:58:32;;;;;;;4.00;3.60;;;;;;;19.63;67.87;100210.25;5053182;28;20255;-76
2022/09/07 01:00:59;;;;;;;3.60;3.40;;;;;;;19.61;67.93;100200.69;5052576;28;20358;-76
2022/09/07 01:03:31;;;;;;;3.90;3.60;;;;;;;19.64;67.78;100213.72;5044115;28;20230;-76
2022/09/07 01:06:05;;;;;;;4.07;3.77;;;;;;;19.59;68.19;100208.72;5052277;28;20635;-76
2022/09/07 01:08:32;;;;;;;4.10;3.57;;;;;;;19.55;68.30;100193.13;5052748;28;20249;-76
2022/09/07 01:11:00;;;;;;;3.97;3.67;;;;;;;19.48;68.35;100183.84;5052161;28;20678;-76
2022/09/07 01:13:26;;;;;;;4.53;3.87;;;;;;;19.48;68.07;100183.84;5052273;28;20249;-75
2022/09/07 01:15:59;;;;;;;4.10;3.33;;;;;;;19.48;67.64;100192.63;5052450;28;20202;-75
2022/09/07 01:18:35;;;;;;;4.23;3.83;;;;;;;19.40;68.74;100182.50;5052692;28;20190;-75
2022/09/07 01:21:25;;;;;;;3.93;3.63;;;;;;;19.35;68.92;100166.06;5052477;28;20263;-76
2022/09/07 01:24:19;;;;;;;4.17;3.93;;;;;;;19.33;68.95;100167.09;5052324;28;20229;-75
2022/09/07 01:30:02;;;;;;;4.20;3.80;;;;;;;19.49;68.02;100190.84;5089539;27;21070;-75
2022/09/07 01:32:40;;;;;;;5.60;4.90;;;;;;;19.39;68.76;100188.75;5089049;28;20227;-75
2022/09/07 01:35:15;;;;;;;4.47;4.10;;;;;;;19.50;68.47;100176.66;5072086;28;20274;-75
2022/09/07 01:37:49;;;;;;;4.87;4.47;;;;;;;19.36;69.05;100175.69;5069068;28;20673;-75
2022/09/07 01:40:20;;;;;;;4.57;4.27;;;;;;;19.35;68.66;100170.50;5069039;28;20200;-75
2022/09/07 01:42:54;;;;;;;4.50;4.10;;;;;;;19.29;69.42;100149.69;5068850;28;20286;-75
2022/09/07 01:45:26;;;;;;;5.57;4.97;;;;;;;19.32;68.92;100150.34;5068865;28;20310;-73
2022/09/07 01:47:55;;;;;;;6.30;5.80;;;;;;;18.86;70.48;100134.56;5068637;28;20201;-73
2022/09/07 01:50:28;;;;;;;6.20;5.70;;;;;;;18.78;71.26;100073.28;5068951;28;20212;-73
2022/09/07 01:53:00;;;;;;;4.90;4.50;;;;;;;18.91;70.93;100076.09;5068673;28;20209;-73
2022/09/07 01:55:33;;;;;;;4.80;4.50;;;;;;;18.89;71.50;100073.56;5068412;28;20722;-73
2022/09/07 01:58:08;;;;;;;5.20;4.90;;;;;;;19.03;70.59;100080.66;5068616;28;20272;-73
2022/09/07 02:00:40;;;;;;;5.00;4.60;;;;;;;19.09;70.18;100103.22;5068582;28;20205;-73
2022/09/07 02:03:13;;;;;;;5.60;5.20;;;;;;;19.02;70.40;100095.66;5068781;28;20231;-73
2022/09/07 02:05:46;;;;;;;5.00;4.60;;;;;;;18.97;71.09;100083.69;5068406;28;20712;-73
2022/09/07 02:08:17;;;;;;;5.97;5.23;;;;;;;18.89;71.29;100075.31;5068346;28;20205;-73
2022/09/07 02:10:49;;;;;;;6.00;5.50;;;;;;;18.93;71.29;100061.84;5068590;28;20278;-73
2022/09/07 02:13:20;;;;;;;5.23;4.90;;;;;;;18.87;72.00;100048.13;5068179;28;20209;-73
2022/09/07 02:15:51;;;;;;;4.63;4.33;;;;;;;18.88;71.51;100050.69;5068158;28;20205;-73
2022/09/07 02:18:20;;;;;;;5.17;4.77;;;;;;;18.83;71.19;100072.13;5068293;28;20694;-73
2022/09/07 02:20:51;;;;;;;5.50;5.00;;;;;;;18.80;71.89;100061.72;5068191;28;20213;-73
2022/09/07 02:23:22;;;;;;;5.10;4.80;;;;;;;18.77;72.06;100051.28;5068406;28;20193;-73
2022/09/07 02:25:53;;;;;;;4.77;4.33;;;;;;;18.76;71.74;100054.03;5068253;28;20197;-73
2022/09/07 02:28:23;;;;;;;5.23;4.83;;;;;;;18.72;71.90;100052.50;5067885;28;20240;-73
2022/09/07 02:30:51;;;;;;;5.80;5.30;;;;;;;18.71;72.67;100043.72;5067706;28;20675;-73
2022/09/07 02:33:18;;;;;;;5.30;4.90;;;;;;;18.66;73.01;100024.63;5067469;28;20604;-73
2022/09/07 02:35:45;;;;;;;6.00;5.60;;;;;;;18.72;72.95;100021.63;5067773;28;20209;-73
2022/09/07 02:38:12;;;;;;;5.80;5.23;;;;;;;18.76;72.73;100036.34;5068022;28;20209;-73
2022/09/07 02:40:38;;;;;;;4.97;4.57;;;;;;;18.78;72.96;100029.19;5058101;28;20621;-73
2022/09/07 02:43:08;;;;;;;5.20;4.90;;;;;;;18.79;72.79;100033.56;5054407;28;20250;-73
2022/09/07 02:45:45;;;;;;;5.33;4.93;;;;;;;18.77;72.89;100026.63;5054602;28;20202;-73
2022/09/07 02:48:21;;;;;;;5.80;5.50;;;;;;;18.72;73.59;100011.03;5054581;28;20497;-73
2022/09/07 02:50:59;;;;;;;5.80;5.40;;;;;;;18.78;72.87;100015.13;5054538;28;20768;-73
2022/09/07 02:53:39;;;;;;;6.83;6.23;;;;;;;18.73;73.46;100001.31;5053822;28;20237;-74
2022/09/07 02:56:17;;;;;;;6.67;6.17;;;;;;;18.80;73.22;100002.69;5054127;28;20670;-73
2022/09/07 02:58:49;;;;;;;7.00;6.60;;;;;;;18.79;73.23;100006.22;5054491;28;20255;-73
2022/09/07 03:01:27;;;;;;;8.03;6.70;;;;;;;18.83;73.40;99994.59;5054261;28;20190;-73
2022/09/07 03:04:06;;;;;;;7.00;6.47;;;;;;;18.82;73.11;100014.88;5050418;28;20623;-73
2022/09/07 03:06:38;;;;;;;7.03;6.23;;;;;;;18.84;73.44;100015.63;5054139;28;20202;-73
2022/09/07 03:09:09;;;;;;;7.07;6.57;;;;;;;18.85;73.35;100009.41;5053863;28;20221;-73
2022/09/07 03:11:36;;;;;;;7.70;7.07;;;;;;;18.86;73.42;99997.03;5053901;28;20740;-75
2022/09/07 03:14:14;;;;;;;9.30;6.83;;;;;;;18.83;73.88;100013.09;5053988;28;20255;-75
2022/09/07 03:16:41;;;;;;;7.07;6.57;;;;;;;18.76;74.36;100054.03;5053606;28;20667;-75
2022/09/07 03:19:09;;;;;;;7.13;6.53;;;;;;;17.60;79.42;100004.22;5054123;28;20275;-75
2022/09/07 03:21:35;;;;;;;7.40;6.90;;;;;;;17.63;80.03;99898.47;5053858;28;20209;-75
2022/09/07 03:24:02;;;;;;;6.43;5.97;;;;;;;17.91;79.04;99871.38;5053908;28;20225;-75
2022/09/07 03:26:29;;;;;;;6.40;5.90;;;;;;;18.12;78.18;99913.31;5053655;28;20236;-75
2022/09/07 03:28:55;;;;;;;6.30;5.77;;;;;;;18.25;77.89;99943.34;5053425;28;20229;-75
2022/09/07 03:31:21;;;;;;;6.00;5.40;;;;;;;18.40;77.38;99960.94;5053292;28;20209;-76
2022/09/07 03:33:48;;;;;;;5.77;5.23;;;;;;;18.45;77.21;99969.47;5053509;28;20274;-75
2022/09/07 03:36:16;;;;;;;5.23;4.93;;;;;;;18.55;76.80;100003.25;5053527;28;20212;-75
2022/09/07 03:38:43;;;;;;;5.40;5.00;;;;;;;18.63;76.65;100011.59;5053746;28;20254;-75
2022/09/07 03:41:09;;;;;;;5.23;4.93;;;;;;;18.69;75.58;100034.16;5053456;28;20209;-76
2022/09/07 03:43:35;;;;;;;5.70;5.20;;;;;;;18.78;76.62;100034.47;5053464;28;20225;-76
2022/09/07 03:46:05;;;;;;;6.17;5.17;;;;;;;18.79;77.83;99993.91;5053505;28;20260;-74
2022/09/07 03:48:32;;;;;;;6.07;5.67;;;;;;;18.84;79.03;99961.88;5053185;28;20225;-73
2022/09/07 03:51:00;;;;;;;6.13;5.73;;;;;;;18.82;80.24;99937.34;5052919;28;20202;-74
2022/09/07 03:53:30;;;;;;;5.77;5.40;;;;;;;18.83;80.49;99923.19;5052864;28;20299;-75
2022/09/07 03:55:58;;;;;;;5.97;5.57;;;;;;;18.86;80.48;99933.56;5053238;28;20279;-75
2022/09/07 03:58:24;;;;;;;5.83;5.33;;;;;;;18.71;81.89;99918.59;5053024;28;20259;-75
2022/09/07 04:00:51;;;;;;;6.33;5.93;;;;;;;18.76;81.95;99908.59;5053282;28;20209;-76
2022/09/07 04:03:17;;;;;;;6.80;6.03;;;;;;;18.73;83.09;99887.63;5052771;28;20253;-75
2022/09/07 04:05:43;;;;;;;6.27;5.77;;;;;;;18.77;82.89;99905.88;5052806;28;20201;-74
2022/09/07 04:08:10;;;;;;;7.27;6.67;;;;;;;18.45;85.92;99863.75;5052929;28;20448;-74
2022/09/07 04:10:38;;;;;;;6.43;6.07;;;;;;;18.36;86.84;99837.88;5052429;28;20316;-74
2022/09/07 04:13:04;;;;;;;6.03;5.63;;;;;;;18.47;86.20;99855.69;5053007;28;20205;-74
2022/09/07 04:15:31;;;;;;;11.17;6.53;;;;;;;18.56;86.11;99881.59;5052893;28;20209;-74
2022/09/07 04:17:57;;;;;;;5.93;5.53;;;;;;;18.60;85.28;99909.53;5052897;28;20201;-74
2022/09/07 04:20:24;;;;;;;6.03;5.73;;;;;;;18.64;84.90;99929.53;5052791;28;20201;-74
2022/09/07 04:22:51;;;;;;;6.90;6.50;;;;;;;18.52;85.02;99948.78;5052531;28;20201;-74
2022/09/07 04:25:17;;;;;;;6.77;6.37;;;;;;;18.54;85.60;99940.78;5052638;28;20318;-74
2022/09/07 04:27:45;;;;;;;7.77;6.00;;;;;;;18.54;85.42;99944.25;5052720;28;20206;-74
2022/09/07 04:30:13;;;;;;;7.27;6.67;;;;;;;18.59;84.84;99970.41;5052781;28;20206;-74
2022/09/07 04:32:39;;;;;;;7.20;6.60;;;;;;;18.58;84.42;99989.88;5052328;28;20721;-74
2022/09/07 04:35:07;;;;;;;6.80;6.17;;;;;;;18.55;84.34;100006.78;5052104;28;20217;-74
2022/09/07 04:37:33;;;;;;;6.10;5.53;;;;;;;18.61;84.11;100016.09;5052237;28;20296;-74
2022/09/07 04:40:00;;;;;;;5.83;5.43;;;;;;;18.54;84.48;100013.00;5052502;28;20209;-74
2022/09/07 04:42:26;;;;;;;5.97;5.60;;;;;;;18.60;84.02;100022.34;5051586;28;20209;-74
2022/09/07 04:44:54;;;;;;;5.77;5.47;;;;;;;18.62;84.14;100031.03;5043098;28;20222;-74
2022/09/07 04:47:21;;;;;;;6.03;5.60;;;;;;;18.60;84.28;100031.13;5041101;28;20206;-74
2022/09/07 04:49:50;;;;;;;6.10;5.70;;;;;;;18.62;84.47;100044.25;5042147;28;20271;-74
2022/09/07 04:52:17;;;;;;;5.90;5.43;;;;;;;18.64;84.14;100051.16;5042533;28;20209;-74
2022/09/07 04:54:44;;;;;;;5.70;5.30;;;;;;;18.65;84.13;100052.00;5040537;28;20225;-74
2022/09/07 04:57:10;;;;;;;6.10;5.50;;;;;;;18.70;84.10;100054.41;5041718;28;20206;-74
2022/09/07 04:59:37;;;;;;;5.67;5.37;;;;;;;18.66;84.63;100051.06;5042370;28;20729;-74
2022/09/07 05:02:05;;;;;;;5.40;5.07;;;;;;;18.67;84.90;100055.41;5041402;28;20202;-74
2022/09/07 05:04:31;;;;;;;6.40;6.00;;;;;;;18.63;85.38;100035.38;5049648;28;20260;-74
2022/09/07 05:06:57;;;;;;;5.40;5.00;;;;;;;18.69;84.95;100039.44;5048057;28;20720;-74
2022/09/07 05:09:24;;;;;;;5.93;5.40;;;;;;;18.74;84.62;100061.19;5040922;28;20337;-74
2022/09/07 05:11:50;;;;;;;5.50;5.20;;;;;;;18.71;85.01;100071.94;5041370;28;20271;-74
2022/09/07 05:14:16;;;;;;;5.93;5.43;;;;;;;18.82;84.78;100080.13;5042337;28;20226;-74
2022/09/07 05:16:43;;;;;;;6.43;6.03;;;;;;;18.86;84.12;100089.59;5040231;28;20651;-74
2022/09/07 05:19:12;;;;;;;6.30;5.90;;;;;;;18.95;84.25;100088.19;5041542;28;20197;-74
2022/09/07 05:21:39;;;;;;;6.43;6.00;;;;;;;18.92;85.01;100075.16;5041971;28;20197;-74
2022/09/07 05:24:06;;;;;;;6.50;6.10;;;;;;;18.87;85.14;100074.56;5040919;28;20264;-74
2022/09/07 05:26:35;;;;;;;6.47;5.97;;;;;;;18.96;84.70;100087.25;5040711;28;20201;-74
2022/09/07 05:29:04;;;;;;;6.20;5.80;;;;;;;18.91;84.61;100097.25;5042080;28;20202;-74
2022/09/07 05:31:31;;;;;;;6.67;6.27;;;;;;;18.86;86.30;100052.56;5041763;28;20213;-74
2022/09/07 05:33:59;;;;;;;9.43;8.33;;;;;;;18.83;85.93;100063.34;5047830;28;20221;-74
2022/09/07 05:36:27;;;;;;;8.83;8.13;;;;;;;18.81;86.21;100046.69;5048254;28;20264;-74
2022/09/07 05:38:54;;;;;;;8.77;8.10;;;;;;;18.80;86.86;100037.06;5040794;28;20201;-74
2022/09/07 05:41:23;;;;;;;9.60;8.97;;;;;;;18.78;86.47;100044.22;5042028;28;20619;-74
2022/09/07 05:43:50;;;;;;;9.13;8.43;;;;;;;18.76;86.77;100032.88;5040864;28;20229;-74
2022/09/07 05:46:17;;;;;;;10.17;9.57;;;;;;;18.74;86.60;100042.69;5040073;28;20206;-74
2022/09/07 05:48:45;;;;;;;10.47;8.07;;;;;;;18.75;86.50;100036.44;5041860;28;20251;-74
2022/09/07 05:51:12;;;;;;;8.80;8.20;;;;;;;18.77;86.35;100039.84;5041529;28;20272;-74
2022/09/07 05:53:42;;;;;;;9.47;8.57;;;;;;;18.74;86.23;100040.03;5040069;28;20222;-74
2022/09/07 05:56:08;;;;;;;9.20;8.50;;;;;;;18.80;85.47;100048.50;5041151;28;20193;-74
2022/09/07 05:58:36;;;;;;;10.77;9.97;;;;;;;18.83;84.87;100066.00;5041644;28;20245;-74
2022/09/07 06:01:05;;;;;;;10.17;9.47;;;;;;;18.78;84.68;100074.13;5042430;28;20194;-74
2022/09/07 06:03:32;;;;;;;8.93;8.33;;;;;;;18.78;84.86;100046.84;5048236;28;20308;-74
2022/09/07 06:06:01;;;;;;;9.93;9.23;;;;;;;18.75;84.86;100041.72;5047118;28;20672;-74
2022/09/07 06:08:28;;;;;;;10.63;9.83;;;;;;;18.66;86.00;100019.34;5041063;28;20209;-73
2022/09/07 06:10:56;;;;;;;9.37;8.77;;;;;;;18.65;86.54;100009.69;5039970;28;20302;-74
2022/09/07 06:13:23;;;;;;;9.70;9.10;;;;;;;18.62;86.16;100023.13;5041850;28;20202;-74
2022/09/07 06:15:49;;;;;;;10.10;9.40;;;;;;;18.61;86.46;100024.91;5042506;28;20667;-74
2022/09/07 06:18:15;;;;;;;10.00;9.20;;;;;;;18.68;86.26;100035.13;5043863;28;20198;-74
2022/09/07 06:20:42;;;;;;;10.33;9.73;;;;;;;18.71;86.50;100035.81;5045652;28;20193;-74
2022/09/07 06:23:08;;;;;;;8.93;8.33;;;;;;;18.74;87.22;100011.81;5044323;28;20198;-74
2022/09/07 06:25:35;;;;;;;9.80;9.17;;;;;;;18.79;86.16;100030.94;5043525;28;20197;-74
2022/09/07 06:28:03;;;;;;;9.83;9.07;;;;;;;18.85;86.52;100021.78;5045153;28;20206;-74
2022/09/07 06:30:29;;;;;;;9.60;9.00;;;;;;;18.91;86.67;100009.97;5044906;28;20225;-74
2022/09/07 06:32:56;;;;;;;10.23;9.63;;;;;;;18.94;86.28;100015.91;5049519;28;20263;-74
2022/09/07 06:35:22;;;;;;;9.70;9.00;;;;;;;19.00;85.35;100043.81;5049648;28;20764;-74
2022/09/07 06:37:48;;;;;;;9.43;8.73;;;;;;;19.05;85.02;100061.09;5044200;28;20202;-74
2022/09/07 06:40:15;;;;;;;10.07;9.37;;;;;;;19.04;85.39;100062.03;5043447;28;20609;-74
2022/09/07 06:42:41;;;;;;;9.23;8.47;;;;;;;19.11;85.09;100074.88;5044806;28;20697;-74
2022/09/07 06:45:10;;;;;;;10.10;9.40;;;;;;;19.16;84.97;100083.41;5043926;28;20271;-74
2022/09/07 06:47:36;;;;;;;10.50;9.83;;;;;;;19.18;84.94;100084.16;5043034;28;20201;-74
2022/09/07 06:50:03;;;;;;;10.00;9.40;;;;;;;19.25;84.33;100101.38;5044803;28;20224;-74
2022/09/07 06:52:29;;;;;;;10.00;9.20;;;;;;;19.29;83.98;100099.41;5042438;28;20255;-76
2022/09/07 06:54:55;;;;;;;9.90;9.10;;;;;;;19.32;83.53;100123.03;5043903;28;20272;-73
2022/09/07 06:57:22;;;;;;;8.70;8.00;;;;;;;19.37;83.59;100123.63;5042936;28;20263;-73
2022/09/07 06:59:48;;;;;;;9.90;9.20;;;;;;;19.42;83.74;100117.09;5044893;28;20197;-73
2022/09/07 07:02:16;;;;;;;8.70;8.10;;;;;;;19.49;84.06;100119.38;5045009;28;20266;-73
2022/09/07 07:04:42;;;;;;;9.23;8.53;;;;;;;19.55;83.64;100129.59;5048573;28;20217;-73
2022/09/07 07:07:12;;;;;;;9.03;8.33;;;;;;;19.59;84.27;100137.22;5044847;28;20201;-74
2022/09/07 07:09:40;;;;;;;7.23;6.63;;;;;;;19.59;83.86;100153.13;5043815;28;20707;-74
2022/09/07 07:12:07;;;;;;;7.63;7.13;;;;;;;19.63;84.41;100133.44;5045001;28;20671;-73
2022/09/07 07:14:34;;;;;;;8.73;8.13;;;;;;;19.60;84.59;100127.47;5053836;28;20718;-73
2022/09/07 07:17:01;;;;;;;7.40;6.90;;;;;;;19.60;84.99;100111.59;5053611;28;20733;-73
2022/09/07 07:19:29;;;;;;;7.40;6.80;;;;;;;19.66;84.81;100113.88;5054067;28;20209;-73
2022/09/07 07:21:55;;;;;;;7.40;6.90;;;;;;;19.68;85.00;100117.25;5054148;28;20209;-73
2022/09/07 07:24:22;;;;;;;7.80;7.30;;;;;;;19.70;85.14;100115.41;5053565;28;20718;-73
2022/09/07 07:26:49;;;;;;;6.70;6.30;;;;;;;19.69;85.60;100100.44;5053286;28;20209;-73
2022/09/07 07:29:15;;;;;;;6.90;6.50;;;;;;;19.84;85.59;100106.59;5053585;28;20625;-73
2022/09/07 07:31:41;;;;;;;6.73;6.23;;;;;;;19.95;83.41;100158.91;5053473;28;20232;-73
2022/09/07 07:34:08;;;;;;;7.07;6.40;;;;;;;20.03;84.82;100157.47;5053549;28;20228;-74
2022/09/07 07:36:36;;;;;;;6.53;5.97;;;;;;;20.18;83.39;100176.03;5053176;28;20594;-74
2022/09/07 07:39:04;;;;;;;6.63;6.03;;;;;;;20.33;82.19;100217.44;5053322;28;20564;-73
2022/09/07 07:41:32;;;;;;;7.67;6.90;;;;;;;20.42;81.86;100238.09;5053318;28;20259;-74
2022/09/07 07:43:59;;;;;;;6.47;5.97;;;;;;;20.53;80.37;100258.59;5053393;28;20268;-73
2022/09/07 07:46:26;;;;;;;5.77;5.47;;;;;;;20.59;79.72;100295.41;5053316;28;20244;-74
2022/09/07 07:48:53;;;;;;;6.60;6.10;;;;;;;20.69;79.96;100308.06;5053350;28;20205;-74
2022/09/07 07:51:20;;;;;;;6.07;5.60;;;;;;;20.76;79.10;100312.88;5053282;28;20272;-74
2022/09/07 07:53:47;;;;;;;6.43;6.03;;;;;;;20.85;78.05;100355.69;5052825;28;20225;-75
2022/09/07 07:56:15;;;;;;;6.57;6.13;;;;;;;20.89;78.30;100359.88;5052966;28;20214;-75
2022/09/07 07:58:45;;;;;;;6.90;6.37;;;;;;;20.96;78.05;100353.22;5053277;28;20209;-73
2022/09/07 08:01:13;;;;;;;7.13;6.33;;;;;;;20.99;78.58;100345.06;5050601;28;20223;-74
2022/09/07 08:03:42;;;;;;;10.67;7.33;;;;;;;20.98;78.28;100351.34;5049527;28;20226;-74
2022/09/07 08:06:12;;;;;;;7.87;7.17;;;;;;;21.03;77.53;100359.88;5048041;28;20198;-74
2022/09/07 08:08:39;;;;;;;7.87;7.20;;;;;;;21.11;76.19;100399.16;5033123;28;20214;-74
2022/09/07 08:11:09;;;;;;;7.30;6.80;;;;;;;21.11;76.01;100412.44;5032808;28;20230;-74
2022/09/07 08:13:35;;;;;;;10.87;8.57;;;;;;;21.12;76.95;100399.06;5033015;28;20222;-74
2022/09/07 08:16:02;;;;;;;6.80;6.20;;;;;;;21.16;77.34;100373.19;5032442;28;20633;-74
2022/09/07 08:18:29;;;;;;;7.17;6.67;;;;;;;21.19;76.55;100379.16;5032853;28;20214;-74
2022/09/07 08:20:59;;;;;;;6.33;5.90;;;;;;;21.26;75.97;100384.06;5039905;28;20198;-74
2022/09/07 08:23:26;;;;;;;6.47;5.97;;;;;;;21.34;75.63;100395.03;5032850;28;20233;-74
2022/09/07 08:25:54;;;;;;;6.13;5.80;;;;;;;21.35;75.12;100415.34;5032433;28;20210;-74
2022/09/07 08:28:22;;;;;;;6.80;6.30;;;;;;;21.42;74.29;100438.72;5032760;28;20653;-74
2022/09/07 08:30:49;;;;;;;6.63;6.07;;;;;;;21.46;73.61;100446.53;5031980;28;20222;-74
2022/09/07 08:33:16;;;;;;;6.50;6.10;;;;;;;21.45;73.80;100453.66;5043929;28;20630;-74
2022/09/07 08:35:43;;;;;;;12.40;6.60;;;;;;;21.47;74.40;100437.63;5051960;28;20197;-74
2022/09/07 08:38:10;;;;;;;6.80;6.37;;;;;;;21.47;74.69;100425.19;5051939;28;20740;-74
2022/09/07 08:40:37;;;;;;;6.97;6.47;;;;;;;21.49;73.97;100425.13;5052402;28;20198;-74
2022/09/07 08:43:16;;;;;;;6.23;5.83;;;;;;;21.52;73.93;100431.06;5052383;28;20690;-74
2022/09/07 08:45:48;;;;;;;5.90;5.50;;;;;;;21.52;73.71;100446.16;5052271;28;20197;-74
2022/09/07 08:48:19;;;;;;;6.43;6.03;;;;;;;21.54;73.89;100442.44;5052654;28;20190;-74
2022/09/07 08:50:55;;;;;;;6.37;5.83;;;;;;;21.54;73.71;100442.44;5052093;28;20315;-74
2022/09/07 08:53:23;;;;;;;5.73;5.20;;;;;;;21.55;73.78;100433.53;5052381;28;20250;-74
2022/09/07 08:55:54;;;;;;;5.37;5.07;;;;;;;21.60;72.75;100454.47;5051852;28;20245;-74
2022/09/07 08:58:25;;;;;;;5.50;5.20;;;;;;;21.59;73.14;100447.47;5051965;28;20263;-74
2022/09/07 09:00:53;;;;;;;4.90;4.60;;;;;;;21.61;72.88;100457.03;5052181;28;20228;-74
2022/09/07 09:03:22;;;;;;;5.30;4.97;;;;;;;21.63;72.34;100472.03;5044887;28;20230;-74
2022/09/07 09:05:57;;;;;;;5.23;4.73;;;;;;;21.66;70.93;100495.72;5043883;28;20201;-75
2022/09/07 09:08:36;;;;;;;4.80;4.43;;;;;;;21.67;71.25;100505.41;5052201;28;20208;-74
2022/09/07 09:11:09;;;;;;;5.33;4.93;;;;;;;21.73;71.12;100513.84;5051785;28;20287;-74
2022/09/07 09:13:54;;;;;;;5.33;4.93;;;;;;;21.75;71.34;100505.78;5051793;28;20237;-74
2022/09/07 09:16:32;;;;;;;4.53;4.23;;;;;;;21.77;71.18;100506.53;5051885;28;20190;-74
2022/09/07 09:19:14;;;;;;;4.53;4.30;;;;;;;21.80;70.51;100525.78;5051763;28;20613;-74
2022/09/07 09:21:41;;;;;;;6.43;4.00;;;;;;;21.82;70.71;100523.00;5051688;28;20202;-74
2022/09/07 09:24:14;;;;;;;4.30;4.00;;;;;;;21.84;70.34;100520.25;5051849;28;20275;-73
2022/09/07 09:26:45;;;;;;;3.77;3.50;;;;;;;21.89;69.15;100548.25;5051386;28;20574;-74
2022/09/07 09:29:12;;;;;;;3.60;3.37;;;;;;;21.91;68.42;100588.03;5051608;28;20271;-74
2022/09/07 09:31:40;;;;;;;4.20;3.90;;;;;;;21.94;68.88;100578.06;5051562;28;20261;-74
2022/09/07 09:34:10;;;;;;;4.20;3.90;;;;;;;21.97;69.30;100553.91;5051288;28;20311;-73
2022/09/07 09:36:42;;;;;;;4.57;4.17;;;;;;;22.02;69.26;100527.03;5051561;28;20202;-74
2022/09/07 09:39:25;;;;;;;4.47;4.17;;;;;;;22.11;68.98;100553.00;5051742;28;20209;-74
2022/09/07 09:41:53;;;;;;;3.70;3.50;;;;;;;22.15;69.61;100529.75;5051573;28;20190;-74
2022/09/07 09:44:21;;;;;;;3.60;3.37;;;;;;;22.18;69.11;100543.69;5051319;28;20232;-74
2022/09/07 09:46:53;;;;;;;3.47;3.20;;;;;;;22.26;68.84;100529.06;5051373;28;20232;-74
2022/09/07 09:49:23;;;;;;;5.40;3.93;;;;;;;22.33;67.37;100572.91;5051580;28;20205;-74
2022/09/07 09:51:51;;;;;;;3.20;2.87;;;;;;;22.44;66.42;100620.94;5055680;28;20225;-74
2022/09/07 09:54:24;;;;;;;5.43;3.80;;;;;;;22.53;66.02;100646.91;5056170;28;20229;-74
2022/09/07 09:56:52;;;;;;;3.87;3.57;;;;;;;22.57;66.51;100616.50;5055089;28;20255;-74
2022/09/07 09:59:26;;;;;;;3.97;3.67;;;;;;;22.62;65.82;100628.66;5055485;28;20205;-74
2022/09/07 10:01:54;;;;;;;4.13;3.83;;;;;;;22.67;65.79;100637.19;5055379;28;20258;-74
2022/09/07 10:04:30;;;;;;;4.13;3.87;;;;;;;22.72;65.62;100627.09;5055310;28;20237;-74
2022/09/07 10:07:03;;;;;;;4.10;3.70;;;;;;;22.74;66.03;100643.81;5048139;28;20200;-74
2022/09/07 10:09:35;;;;;;;4.03;3.80;;;;;;;22.74;65.78;100628.69;5055248;28;20190;-74
2022/09/07 10:12:02;;;;;;;4.10;3.70;;;;;;;22.76;65.71;100628.59;5055173;28;20233;-74
2022/09/07 10:14:33;;;;;;;4.27;3.80;;;;;;;22.75;65.67;100618.88;5055276;28;20225;-74
2022/09/07 10:17:10;;;;;;;3.30;3.00;;;;;;;22.75;65.21;100629.53;5054642;28;20257;-74
2022/09/07 10:19:38;;;;;;;4.10;3.80;;;;;;;22.76;64.62;100650.72;5051650;28;20245;-74
2022/09/07 10:22:20;;;;;;;3.93;3.63;;;;;;;22.75;64.86;100645.50;5046569;28;20202;-74
2022/09/07 10:24:47;;;;;;;5.30;3.50;;;;;;;22.77;64.99;100648.91;5054830;28;20272;-74
2022/09/07 10:27:28;;;;;;;4.23;3.93;;;;;;;22.91;64.40;100645.31;5055002;28;20248;-74
2022/09/07 10:29:54;;;;;;;3.53;3.33;;;;;;;22.96;64.14;100651.22;5055143;28;20214;-74
2022/09/07 10:32:33;;;;;;;4.53;4.07;;;;;;;23.12;64.31;100651.06;5054364;28;20229;-74
2022/09/07 10:35:13;;;;;;;4.20;3.80;;;;;;;23.19;64.92;100612.38;5048098;28;20302;-74
2022/09/07 10:37:50;;;;;;;3.93;3.63;;;;;;;23.33;63.83;100640.72;5047908;28;20202;-74
2022/09/07 10:40:28;;;;;;;4.07;3.77;;;;;;;23.47;62.41;100671.72;5045430;28;20266;-74
2022/09/07 10:43:01;;;;;;;4.13;3.60;;;;;;;23.51;62.78;100698.09;5045275;28;20200;-74
2022/09/07 10:45:41;;;;;;;4.10;3.77;;;;;;;23.70;64.25;100646.16;5044206;28;20757;-74
2022/09/07 10:48:17;;;;;;;3.60;3.40;;;;;;;23.96;62.31;100653.19;5045177;28;20202;-74
2022/09/07 10:50:47;;;;;;;3.80;3.50;;;;;;;24.10;62.02;100712.66;5042317;28;20717;-74
2022/09/07 10:53:28;;;;;;;3.77;3.47;;;;;;;24.27;61.92;100703.47;5044675;28;20258;-73
2022/09/07 10:56:04;;;;;;;4.10;3.33;;;;;;;24.43;62.74;100681.84;5044654;28;20193;-74
2022/09/07 10:58:37;;;;;;;4.23;3.37;;;;;;;24.53;61.11;100694.44;5044750;28;20258;-74
2022/09/07 11:01:14;;;;;;;3.70;3.30;;;;;;;24.65;59.80;100731.88;5044694;28;20204;-74
2022/09/07 11:03:57;;;;;;;3.80;3.50;;;;;;;24.51;59.30;100791.59;5048217;28;20230;-74
2022/09/07 11:06:29;;;;;;;3.53;3.33;;;;;;;24.67;60.80;100740.63;5052619;28;20201;-74
2022/09/07 11:09:26;;;;;;;5.73;3.73;;;;;;;24.74;57.98;100784.59;5051571;28;20203;-74
2022/09/07 11:12:00;;;;;;;4.37;3.97;;;;;;;24.73;57.13;100818.44;5050804;28;20267;-74
2022/09/07 11:14:29;;;;;;;3.80;3.60;;;;;;;24.80;58.12;100834.88;5053631;28;20638;-74
2022/09/07 11:16:58;;;;;;;4.03;3.63;;;;;;;24.96;57.46;100818.59;5053459;28;20205;-74
2022/09/07 11:19:30;;;;;;;4.00;3.70;;;;;;;25.33;59.16;100768.66;5053522;28;20612;-75
2022/09/07 11:22:04;;;;;;;3.67;3.47;;;;;;;25.59;55.75;100839.78;5051430;28;20197;-75
2022/09/07 11:24:36;;;;;;;4.03;3.10;;;;;;;25.79;55.34;100873.91;5053066;28;20221;-75
2022/09/07 11:27:12;;;;;;;3.10;2.90;;;;;;;25.95;53.25;100970.75;5053066;28;20613;-75
2022/09/07 11:29:46;;;;;;;3.60;3.27;;;;;;;26.23;53.26;100968.66;5051608;28;20626;-75
2022/09/07 11:32:20;;;;;;;3.10;2.90;;;;;;;26.21;52.39;100985.81;5053246;28;20261;-75
2022/09/07 11:34:54;;;;;;;3.27;3.00;;;;;;;26.03;52.96;100980.03;5052386;28;20275;-75
2022/09/07 11:37:25;;;;;;;3.20;3.00;;;;;;;25.90;53.83;100940.81;5052953;28;20713;-75
2022/09/07 11:39:56;;;;;;;3.50;3.20;;;;;;;25.86;54.25;100891.16;5050834;28;20224;-74
2022/09/07 11:42:26;;;;;;;3.30;3.10;;;;;;;25.86;56.07;100820.78;5052933;28;20239;-75